sensor_id;sensor_type;location;lat;lon;timestamp;P1;durP1;ratioP1;P2;durP2;ratioP2
16506;SDS011;8366;51.020;7.642;2023-11-21T00:01:01;15.67;;;8.30;;
16506;SDS011;8366;51.020;7.642;2023-11-21T00:03:29;23.57;;;11.07;;
16506;SDS011;8366;51.020;7.642;2023-11-21T00:05:55;23.60;;;11.40;;
16506;SDS011;8366;51.020;7.642;2023-11-21T00:08:23;18.17;;;9.93;;
16506;SDS011;8366;51.020;7.642;2023-11-21T00:10:50;25.63;;;11.97;;
16506;SDS011;8366;51.020;7.642;2023-11-21T00:13:17;16.50;;;9.30;;
16506;SDS011;8366;51.020;7.642;2023-11-21T00:15:43;13.20;;;8.07;;
16506;SDS011;8366;51.020;7.642;2023-11-21T00:18:10;19.60;;;9.90;;
16506;SDS011;8366;51.020;7.642;2023-11-21T00:20:36;21.93;;;11.37;;
16506;SDS011;8366;51.020;7.642;2023-11-21T00:23:02;21.30;;;11.03;;
16506;SDS011;8366;51.020;7.642;2023-11-21T00:25:30;21.40;;;11.50;;
16506;SDS011;8366;51.020;7.642;2023-11-21T00:27:57;20.17;;;11.33;;
16506;SDS011;8366;51.020;7.642;2023-11-21T00:30:23;17.70;;;9.70;;
16506;SDS011;8366;51.020;7.642;2023-11-21T00:32:50;18.07;;;9.03;;
16506;SDS011;8366;51.020;7.642;2023-11-21T00:35:16;16.83;;;7.93;;
16506;SDS011;8366;51.020;7.642;2023-11-21T00:37:43;13.80;;;8.20;;
16506;SDS011;8366;51.020;7.642;2023-11-21T00:40:10;10.97;;;7.07;;
16506;SDS011;8366;51.020;7.642;2023-11-21T00:42:38;13.23;;;7.20;;
16506;SDS011;8366;51.020;7.642;2023-11-21T00:45:05;9.77;;;6.50;;
16506;SDS011;8366;51.020;7.642;2023-11-21T00:47:33;9.60;;;6.83;;
16506;SDS011;8366;51.020;7.642;2023-11-21T00:49:59;13.40;;;7.53;;
16506;SDS011;8366;51.020;7.642;2023-11-21T00:52:26;11.33;;;7.40;;
16506;SDS011;8366;51.020;7.642;2023-11-21T00:54:52;10.30;;;6.60;;
16506;SDS011;8366;51.020;7.642;2023-11-21T00:57:19;12.47;;;7.07;;
16506;SDS011;8366;51.020;7.642;2023-11-21T00:59:46;11.33;;;7.10;;
16506;SDS011;8366;51.020;7.642;2023-11-21T01:02:13;17.60;;;8.30;;
16506;SDS011;8366;51.020;7.642;2023-11-21T01:04:40;10.43;;;7.07;;
16506;SDS011;8366;51.020;7.642;2023-11-21T01:07:06;14.97;;;8.83;;
16506;SDS011;8366;51.020;7.642;2023-11-21T01:09:33;10.97;;;7.30;;
16506;SDS011;8366;51.020;7.642;2023-11-21T01:12:00;10.67;;;8.00;;
16506;SDS011;8366;51.020;7.642;2023-11-21T01:14:28;12.67;;;7.83;;
16506;SDS011;8366;51.020;7.642;2023-11-21T01:16:56;14.30;;;7.50;;
16506;SDS011;8366;51.020;7.642;2023-11-21T01:19:22;12.87;;;7.33;;
16506;SDS011;8366;51.020;7.642;2023-11-21T01:21:49;13.37;;;6.70;;
16506;SDS011;8366;51.020;7.642;2023-11-21T01:24:17;10.70;;;7.17;;
16506;SDS011;8366;51.020;7.642;2023-11-21T01:26:43;11.27;;;6.90;;
16506;SDS011;8366;51.020;7.642;2023-11-21T01:29:11;12.80;;;7.27;;
16506;SDS011;8366;51.020;7.642;2023-11-21T01:31:38;9.13;;;6.77;;
16506;SDS011;8366;51.020;7.642;2023-11-21T01:34:06;10.23;;;6.30;;
16506;SDS011;8366;51.020;7.642;2023-11-21T01:36:32;10.00;;;5.87;;
16506;SDS011;8366;51.020;7.642;2023-11-21T01:39:00;9.83;;;6.17;;
16506;SDS011;8366;51.020;7.642;2023-11-21T01:41:27;14.33;;;6.23;;
16506;SDS011;8366;51.020;7.642;2023-11-21T01:43:53;10.90;;;6.50;;
16506;SDS011;8366;51.020;7.642;2023-11-21T01:46:20;10.77;;;6.90;;
16506;SDS011;8366;51.020;7.642;2023-11-21T01:48:47;10.07;;;6.43;;
16506;SDS011;8366;51.020;7.642;2023-11-21T01:51:16;9.87;;;6.73;;
16506;SDS011;8366;51.020;7.642;2023-11-21T01:53:43;11.80;;;7.10;;
16506;SDS011;8366;51.020;7.642;2023-11-21T01:56:10;14.70;;;6.93;;
16506;SDS011;8366;51.020;7.642;2023-11-21T01:58:36;8.50;;;6.27;;
16506;SDS011;8366;51.020;7.642;2023-11-21T02:01:03;14.47;;;6.83;;
16506;SDS011;8366;51.020;7.642;2023-11-21T02:03:30;10.27;;;6.70;;
16506;SDS011;8366;51.020;7.642;2023-11-21T02:05:56;10.70;;;7.17;;
16506;SDS011;8366;51.020;7.642;2023-11-21T02:08:25;9.67;;;6.37;;
16506;SDS011;8366;51.020;7.642;2023-11-21T02:10:52;10.83;;;6.03;;
16506;SDS011;8366;51.020;7.642;2023-11-21T02:13:18;9.60;;;6.60;;
16506;SDS011;8366;51.020;7.642;2023-11-21T02:15:45;8.87;;;6.57;;
16506;SDS011;8366;51.020;7.642;2023-11-21T02:18:12;9.73;;;6.27;;
16506;SDS011;8366;51.020;7.642;2023-11-21T02:20:40;10.60;;;6.40;;
16506;SDS011;8366;51.020;7.642;2023-11-21T02:23:09;10.73;;;6.13;;
16506;SDS011;8366;51.020;7.642;2023-11-21T02:25:35;11.93;;;6.53;;
16506;SDS011;8366;51.020;7.642;2023-11-21T02:28:02;16.13;;;8.20;;
16506;SDS011;8366;51.020;7.642;2023-11-21T02:30:30;13.77;;;8.10;;
16506;SDS011;8366;51.020;7.642;2023-11-21T02:32:57;14.40;;;8.23;;
16506;SDS011;8366;51.020;7.642;2023-11-21T02:35:23;15.33;;;8.07;;
16506;SDS011;8366;51.020;7.642;2023-11-21T02:37:51;17.07;;;8.30;;
16506;SDS011;8366;51.020;7.642;2023-11-21T02:40:19;11.07;;;7.87;;
16506;SDS011;8366;51.020;7.642;2023-11-21T02:45:21;13.97;;;8.23;;
16506;SDS011;8366;51.020;7.642;2023-11-21T02:47:49;11.63;;;7.30;;
16506;SDS011;8366;51.020;7.642;2023-11-21T02:50:18;10.83;;;6.80;;
16506;SDS011;8366;51.020;7.642;2023-11-21T02:52:45;11.47;;;8.30;;
16506;SDS011;8366;51.020;7.642;2023-11-21T02:55:11;12.87;;;7.20;;
16506;SDS011;8366;51.020;7.642;2023-11-21T02:57:39;12.43;;;7.43;;
16506;SDS011;8366;51.020;7.642;2023-11-21T03:00:06;11.77;;;7.93;;
16506;SDS011;8366;51.020;7.642;2023-11-21T03:02:37;13.73;;;7.50;;
16506;SDS011;8366;51.020;7.642;2023-11-21T03:05:05;10.93;;;7.40;;
16506;SDS011;8366;51.020;7.642;2023-11-21T03:07:33;10.60;;;7.40;;
16506;SDS011;8366;51.020;7.642;2023-11-21T03:10:00;10.30;;;7.30;;
16506;SDS011;8366;51.020;7.642;2023-11-21T03:12:26;12.67;;;7.33;;
16506;SDS011;8366;51.020;7.642;2023-11-21T03:14:54;11.07;;;7.30;;
16506;SDS011;8366;51.020;7.642;2023-11-21T03:17:21;11.43;;;6.90;;
16506;SDS011;8366;51.020;7.642;2023-11-21T03:19:47;19.00;;;6.83;;
16506;SDS011;8366;51.020;7.642;2023-11-21T03:22:14;10.70;;;7.53;;
16506;SDS011;8366;51.020;7.642;2023-11-21T03:24:40;13.83;;;7.33;;
16506;SDS011;8366;51.020;7.642;2023-11-21T03:27:07;15.57;;;6.57;;
16506;SDS011;8366;51.020;7.642;2023-11-21T03:29:34;12.07;;;7.20;;
16506;SDS011;8366;51.020;7.642;2023-11-21T03:32:02;10.60;;;6.87;;
16506;SDS011;8366;51.020;7.642;2023-11-21T03:34:28;13.00;;;6.27;;
16506;SDS011;8366;51.020;7.642;2023-11-21T03:36:55;10.70;;;6.80;;
16506;SDS011;8366;51.020;7.642;2023-11-21T03:39:21;13.37;;;7.27;;
16506;SDS011;8366;51.020;7.642;2023-11-21T03:41:48;11.23;;;7.00;;
16506;SDS011;8366;51.020;7.642;2023-11-21T03:44:17;10.40;;;6.73;;
16506;SDS011;8366;51.020;7.642;2023-11-21T03:46:43;9.87;;;6.70;;
16506;SDS011;8366;51.020;7.642;2023-11-21T03:49:11;9.50;;;6.97;;
16506;SDS011;8366;51.020;7.642;2023-11-21T03:51:38;13.00;;;6.90;;
16506;SDS011;8366;51.020;7.642;2023-11-21T03:54:04;13.53;;;7.77;;
16506;SDS011;8366;51.020;7.642;2023-11-21T03:56:31;11.57;;;6.87;;
16506;SDS011;8366;51.020;7.642;2023-11-21T03:58:58;10.33;;;6.40;;
16506;SDS011;8366;51.020;7.642;2023-11-21T04:01:24;10.93;;;6.57;;
16506;SDS011;8366;51.020;7.642;2023-11-21T04:03:51;11.40;;;7.13;;
16506;SDS011;8366;51.020;7.642;2023-11-21T04:06:19;9.77;;;6.43;;
16506;SDS011;8366;51.020;7.642;2023-11-21T04:08:45;12.93;;;6.80;;
16506;SDS011;8366;51.020;7.642;2023-11-21T04:11:12;12.37;;;6.33;;
16506;SDS011;8366;51.020;7.642;2023-11-21T04:13:39;14.73;;;7.40;;
16506;SDS011;8366;51.020;7.642;2023-11-21T04:16:06;16.37;;;7.27;;
16506;SDS011;8366;51.020;7.642;2023-11-21T04:18:33;14.23;;;8.03;;
16506;SDS011;8366;51.020;7.642;2023-11-21T04:21:01;13.70;;;8.00;;
16506;SDS011;8366;51.020;7.642;2023-11-21T04:23:29;15.37;;;8.10;;
16506;SDS011;8366;51.020;7.642;2023-11-21T04:25:56;13.83;;;7.77;;
16506;SDS011;8366;51.020;7.642;2023-11-21T04:28:23;9.43;;;7.10;;
16506;SDS011;8366;51.020;7.642;2023-11-21T04:30:50;14.40;;;7.57;;
16506;SDS011;8366;51.020;7.642;2023-11-21T04:33:16;18.47;;;8.40;;
16506;SDS011;8366;51.020;7.642;2023-11-21T04:35:43;13.33;;;7.67;;
16506;SDS011;8366;51.020;7.642;2023-11-21T04:38:10;11.00;;;7.20;;
16506;SDS011;8366;51.020;7.642;2023-11-21T04:40:37;14.43;;;8.17;;
16506;SDS011;8366;51.020;7.642;2023-11-21T04:43:04;15.07;;;7.57;;
16506;SDS011;8366;51.020;7.642;2023-11-21T04:45:31;13.30;;;7.67;;
16506;SDS011;8366;51.020;7.642;2023-11-21T04:47:57;15.10;;;7.80;;
16506;SDS011;8366;51.020;7.642;2023-11-21T04:50:24;10.70;;;7.13;;
16506;SDS011;8366;51.020;7.642;2023-11-21T04:52:52;12.43;;;7.07;;
16506;SDS011;8366;51.020;7.642;2023-11-21T04:55:19;13.83;;;8.20;;
16506;SDS011;8366;51.020;7.642;2023-11-21T04:57:46;14.00;;;7.77;;
16506;SDS011;8366;51.020;7.642;2023-11-21T05:00:13;11.67;;;7.57;;
16506;SDS011;8366;51.020;7.642;2023-11-21T05:02:41;14.20;;;7.60;;
16506;SDS011;8366;51.020;7.642;2023-11-21T05:05:08;16.63;;;8.00;;
16506;SDS011;8366;51.020;7.642;2023-11-21T05:07:35;12.00;;;7.53;;
16506;SDS011;8366;51.020;7.642;2023-11-21T05:10:03;16.27;;;8.93;;
16506;SDS011;8366;51.020;7.642;2023-11-21T05:12:32;17.07;;;7.87;;
16506;SDS011;8366;51.020;7.642;2023-11-21T05:15:02;20.60;;;8.80;;
16506;SDS011;8366;51.020;7.642;2023-11-21T05:17:32;14.33;;;8.10;;
16506;SDS011;8366;51.020;7.642;2023-11-21T05:19:59;12.30;;;7.90;;
16506;SDS011;8366;51.020;7.642;2023-11-21T05:22:26;14.00;;;7.10;;
16506;SDS011;8366;51.020;7.642;2023-11-21T05:24:53;15.20;;;7.90;;
16506;SDS011;8366;51.020;7.642;2023-11-21T05:27:20;12.43;;;7.33;;
16506;SDS011;8366;51.020;7.642;2023-11-21T05:29:47;16.37;;;8.07;;
16506;SDS011;8366;51.020;7.642;2023-11-21T05:32:15;12.53;;;7.23;;
16506;SDS011;8366;51.020;7.642;2023-11-21T05:34:42;13.03;;;7.63;;
16506;SDS011;8366;51.020;7.642;2023-11-21T05:37:09;10.97;;;7.23;;
16506;SDS011;8366;51.020;7.642;2023-11-21T05:39:35;18.00;;;7.73;;
16506;SDS011;8366;51.020;7.642;2023-11-21T05:42:02;13.40;;;7.80;;
16506;SDS011;8366;51.020;7.642;2023-11-21T05:44:29;13.17;;;7.70;;
16506;SDS011;8366;51.020;7.642;2023-11-21T05:46:55;13.07;;;8.10;;
16506;SDS011;8366;51.020;7.642;2023-11-21T05:49:24;13.67;;;7.87;;
16506;SDS011;8366;51.020;7.642;2023-11-21T05:51:51;14.03;;;8.07;;
16506;SDS011;8366;51.020;7.642;2023-11-21T05:54:19;13.33;;;7.53;;
16506;SDS011;8366;51.020;7.642;2023-11-21T05:56:45;16.07;;;8.47;;
16506;SDS011;8366;51.020;7.642;2023-11-21T05:59:12;13.60;;;8.33;;
16506;SDS011;8366;51.020;7.642;2023-11-21T06:01:39;15.77;;;8.57;;
16506;SDS011;8366;51.020;7.642;2023-11-21T06:04:06;14.47;;;8.03;;
16506;SDS011;8366;51.020;7.642;2023-11-21T06:06:34;17.17;;;8.63;;
16506;SDS011;8366;51.020;7.642;2023-11-21T06:09:01;14.67;;;8.73;;
16506;SDS011;8366;51.020;7.642;2023-11-21T06:11:27;15.70;;;8.40;;
16506;SDS011;8366;51.020;7.642;2023-11-21T06:13:54;15.67;;;8.80;;
16506;SDS011;8366;51.020;7.642;2023-11-21T06:16:20;13.80;;;8.90;;
16506;SDS011;8366;51.020;7.642;2023-11-21T06:18:47;13.60;;;8.33;;
16506;SDS011;8366;51.020;7.642;2023-11-21T06:21:15;13.60;;;8.23;;
16506;SDS011;8366;51.020;7.642;2023-11-21T06:23:43;14.83;;;8.97;;
16506;SDS011;8366;51.020;7.642;2023-11-21T06:26:09;16.13;;;9.70;;
16506;SDS011;8366;51.020;7.642;2023-11-21T06:28:38;15.47;;;8.77;;
16506;SDS011;8366;51.020;7.642;2023-11-21T06:31:04;14.33;;;9.03;;
16506;SDS011;8366;51.020;7.642;2023-11-21T06:33:31;15.63;;;9.37;;
16506;SDS011;8366;51.020;7.642;2023-11-21T06:35:58;18.77;;;9.37;;
16506;SDS011;8366;51.020;7.642;2023-11-21T06:38:25;15.40;;;8.87;;
16506;SDS011;8366;51.020;7.642;2023-11-21T06:40:56;14.73;;;8.80;;
16506;SDS011;8366;51.020;7.642;2023-11-21T06:43:23;16.67;;;9.73;;
16506;SDS011;8366;51.020;7.642;2023-11-21T06:45:49;14.63;;;9.13;;
16506;SDS011;8366;51.020;7.642;2023-11-21T06:48:16;18.50;;;12.63;;
16506;SDS011;8366;51.020;7.642;2023-11-21T06:50:42;17.10;;;11.03;;
16506;SDS011;8366;51.020;7.642;2023-11-21T06:53:09;14.63;;;9.20;;
16506;SDS011;8366;51.020;7.642;2023-11-21T06:55:35;18.87;;;9.33;;
16506;SDS011;8366;51.020;7.642;2023-11-21T06:58:03;15.43;;;8.40;;
16506;SDS011;8366;51.020;7.642;2023-11-21T07:00:30;12.13;;;8.30;;
16506;SDS011;8366;51.020;7.642;2023-11-21T07:02:56;19.33;;;13.13;;
16506;SDS011;8366;51.020;7.642;2023-11-21T07:05:23;17.20;;;11.07;;
16506;SDS011;8366;51.020;7.642;2023-11-21T07:07:49;16.33;;;9.30;;
16506;SDS011;8366;51.020;7.642;2023-11-21T07:10:17;14.47;;;8.90;;
16506;SDS011;8366;51.020;7.642;2023-11-21T07:12:44;15.40;;;8.70;;
16506;SDS011;8366;51.020;7.642;2023-11-21T07:15:12;13.00;;;8.30;;
16506;SDS011;8366;51.020;7.642;2023-11-21T07:17:38;13.70;;;8.03;;
16506;SDS011;8366;51.020;7.642;2023-11-21T07:20:06;15.17;;;8.50;;
16506;SDS011;8366;51.020;7.642;2023-11-21T07:22:33;16.37;;;8.60;;
16506;SDS011;8366;51.020;7.642;2023-11-21T07:25:00;15.30;;;8.57;;
16506;SDS011;8366;51.020;7.642;2023-11-21T07:27:26;16.63;;;9.37;;
16506;SDS011;8366;51.020;7.642;2023-11-21T07:29:53;20.07;;;11.10;;
16506;SDS011;8366;51.020;7.642;2023-11-21T07:32:21;20.47;;;11.27;;
16506;SDS011;8366;51.020;7.642;2023-11-21T07:34:48;16.70;;;9.53;;
16506;SDS011;8366;51.020;7.642;2023-11-21T07:37:14;13.90;;;9.20;;
16506;SDS011;8366;51.020;7.642;2023-11-21T07:39:41;21.13;;;9.23;;
16506;SDS011;8366;51.020;7.642;2023-11-21T07:42:08;16.63;;;9.23;;
16506;SDS011;8366;51.020;7.642;2023-11-21T07:44:35;16.73;;;10.00;;
16506;SDS011;8366;51.020;7.642;2023-11-21T07:47:02;22.20;;;12.73;;
16506;SDS011;8366;51.020;7.642;2023-11-21T07:49:31;25.10;;;12.40;;
16506;SDS011;8366;51.020;7.642;2023-11-21T07:51:57;21.03;;;11.83;;
16506;SDS011;8366;51.020;7.642;2023-11-21T07:54:24;20.30;;;12.23;;
16506;SDS011;8366;51.020;7.642;2023-11-21T07:56:50;18.37;;;11.70;;
16506;SDS011;8366;51.020;7.642;2023-11-21T07:59:17;20.40;;;11.77;;
16506;SDS011;8366;51.020;7.642;2023-11-21T08:01:44;20.57;;;11.07;;
16506;SDS011;8366;51.020;7.642;2023-11-21T08:04:11;18.83;;;11.87;;
16506;SDS011;8366;51.020;7.642;2023-11-21T08:06:39;21.43;;;11.57;;
16506;SDS011;8366;51.020;7.642;2023-11-21T08:09:06;20.77;;;12.10;;
16506;SDS011;8366;51.020;7.642;2023-11-21T08:11:33;20.57;;;11.37;;
16506;SDS011;8366;51.020;7.642;2023-11-21T08:14:00;20.27;;;12.00;;
16506;SDS011;8366;51.020;7.642;2023-11-21T08:16:26;21.77;;;12.47;;
16506;SDS011;8366;51.020;7.642;2023-11-21T08:18:53;22.47;;;11.97;;
16506;SDS011;8366;51.020;7.642;2023-11-21T08:21:20;19.27;;;12.03;;
16506;SDS011;8366;51.020;7.642;2023-11-21T08:23:50;22.63;;;12.50;;
16506;SDS011;8366;51.020;7.642;2023-11-21T08:26:19;21.70;;;11.83;;
16506;SDS011;8366;51.020;7.642;2023-11-21T08:28:45;22.27;;;12.47;;
16506;SDS011;8366;51.020;7.642;2023-11-21T08:31:13;23.20;;;12.80;;
16506;SDS011;8366;51.020;7.642;2023-11-21T08:33:39;25.27;;;13.90;;
16506;SDS011;8366;51.020;7.642;2023-11-21T08:36:08;27.63;;;14.23;;
16506;SDS011;8366;51.020;7.642;2023-11-21T08:38:36;23.23;;;12.80;;
16506;SDS011;8366;51.020;7.642;2023-11-21T08:41:04;23.50;;;13.73;;
16506;SDS011;8366;51.020;7.642;2023-11-21T08:43:32;25.77;;;13.93;;
16506;SDS011;8366;51.020;7.642;2023-11-21T08:45:59;24.17;;;13.60;;
16506;SDS011;8366;51.020;7.642;2023-11-21T08:48:26;23.27;;;13.13;;
16506;SDS011;8366;51.020;7.642;2023-11-21T08:50:54;28.90;;;13.87;;
16506;SDS011;8366;51.020;7.642;2023-11-21T08:53:21;23.33;;;13.23;;
16506;SDS011;8366;51.020;7.642;2023-11-21T08:55:48;22.80;;;13.10;;
16506;SDS011;8366;51.020;7.642;2023-11-21T08:58:16;23.67;;;13.83;;
16506;SDS011;8366;51.020;7.642;2023-11-21T09:00:43;23.00;;;13.13;;
16506;SDS011;8366;51.020;7.642;2023-11-21T09:03:11;22.70;;;13.27;;
16506;SDS011;8366;51.020;7.642;2023-11-21T09:05:37;21.33;;;12.70;;
16506;SDS011;8366;51.020;7.642;2023-11-21T09:08:04;21.10;;;12.47;;
16506;SDS011;8366;51.020;7.642;2023-11-21T09:10:31;24.17;;;13.50;;
16506;SDS011;8366;51.020;7.642;2023-11-21T09:13:00;22.13;;;12.83;;
16506;SDS011;8366;51.020;7.642;2023-11-21T09:15:28;21.27;;;12.40;;
16506;SDS011;8366;51.020;7.642;2023-11-21T09:17:55;25.37;;;12.87;;
16506;SDS011;8366;51.020;7.642;2023-11-21T09:20:21;26.87;;;13.30;;
16506;SDS011;8366;51.020;7.642;2023-11-21T09:22:48;22.37;;;12.43;;
16506;SDS011;8366;51.020;7.642;2023-11-21T09:25:15;22.37;;;13.10;;
16506;SDS011;8366;51.020;7.642;2023-11-21T09:27:42;22.17;;;12.80;;
16506;SDS011;8366;51.020;7.642;2023-11-21T09:30:08;22.67;;;11.10;;
16506;SDS011;8366;51.020;7.642;2023-11-21T09:32:37;17.30;;;9.60;;
16506;SDS011;8366;51.020;7.642;2023-11-21T09:35:05;17.57;;;9.17;;
16506;SDS011;8366;51.020;7.642;2023-11-21T09:37:33;17.97;;;9.67;;
16506;SDS011;8366;51.020;7.642;2023-11-21T09:40:01;22.40;;;10.47;;
16506;SDS011;8366;51.020;7.642;2023-11-21T09:42:29;17.43;;;10.77;;
16506;SDS011;8366;51.020;7.642;2023-11-21T09:44:58;20.90;;;10.30;;
16506;SDS011;8366;51.020;7.642;2023-11-21T09:47:29;19.80;;;9.93;;
16506;SDS011;8366;51.020;7.642;2023-11-21T09:49:57;15.77;;;9.13;;
16506;SDS011;8366;51.020;7.642;2023-11-21T09:52:27;14.83;;;9.00;;
16506;SDS011;8366;51.020;7.642;2023-11-21T09:54:55;16.37;;;9.20;;
16506;SDS011;8366;51.020;7.642;2023-11-21T09:57:22;16.33;;;9.50;;
16506;SDS011;8366;51.020;7.642;2023-11-21T09:59:50;19.27;;;10.43;;
16506;SDS011;8366;51.020;7.642;2023-11-21T10:02:20;18.97;;;10.10;;
16506;SDS011;8366;51.020;7.642;2023-11-21T10:04:51;18.00;;;10.07;;
16506;SDS011;8366;51.020;7.642;2023-11-21T10:07:19;20.10;;;9.83;;
16506;SDS011;8366;51.020;7.642;2023-11-21T10:09:46;19.93;;;11.83;;
16506;SDS011;8366;51.020;7.642;2023-11-21T10:12:14;18.73;;;9.60;;
16506;SDS011;8366;51.020;7.642;2023-11-21T10:14:41;21.93;;;11.27;;
16506;SDS011;8366;51.020;7.642;2023-11-21T10:17:09;19.63;;;11.00;;
16506;SDS011;8366;51.020;7.642;2023-11-21T10:19:38;19.33;;;9.80;;
16506;SDS011;8366;51.020;7.642;2023-11-21T10:22:05;17.77;;;11.43;;
16506;SDS011;8366;51.020;7.642;2023-11-21T10:24:35;22.83;;;10.70;;
16506;SDS011;8366;51.020;7.642;2023-11-21T10:27:02;16.80;;;9.83;;
16506;SDS011;8366;51.020;7.642;2023-11-21T10:29:29;21.60;;;10.67;;
16506;SDS011;8366;51.020;7.642;2023-11-21T10:32:01;23.33;;;11.40;;
16506;SDS011;8366;51.020;7.642;2023-11-21T10:34:28;25.70;;;11.63;;
16506;SDS011;8366;51.020;7.642;2023-11-21T10:36:54;24.73;;;11.43;;
16506;SDS011;8366;51.020;7.642;2023-11-21T10:39:23;23.37;;;11.27;;
16506;SDS011;8366;51.020;7.642;2023-11-21T10:41:54;26.83;;;11.30;;
16506;SDS011;8366;51.020;7.642;2023-11-21T10:44:23;23.93;;;11.60;;
16506;SDS011;8366;51.020;7.642;2023-11-21T10:46:51;23.33;;;12.63;;
16506;SDS011;8366;51.020;7.642;2023-11-21T10:49:21;29.60;;;18.27;;
16506;SDS011;8366;51.020;7.642;2023-11-21T10:51:49;28.23;;;15.90;;
16506;SDS011;8366;51.020;7.642;2023-11-21T10:54:18;25.90;;;12.63;;
16506;SDS011;8366;51.020;7.642;2023-11-21T10:56:45;25.83;;;12.47;;
16506;SDS011;8366;51.020;7.642;2023-11-21T10:59:14;24.40;;;12.63;;
16506;SDS011;8366;51.020;7.642;2023-11-21T11:01:41;24.67;;;12.63;;
16506;SDS011;8366;51.020;7.642;2023-11-21T11:04:09;26.67;;;12.40;;
16506;SDS011;8366;51.020;7.642;2023-11-21T11:06:40;24.13;;;12.70;;
16506;SDS011;8366;51.020;7.642;2023-11-21T11:09:07;22.17;;;12.60;;
16506;SDS011;8366;51.020;7.642;2023-11-21T11:11:34;27.93;;;13.43;;
16506;SDS011;8366;51.020;7.642;2023-11-21T11:14:04;26.83;;;13.20;;
16506;SDS011;8366;51.020;7.642;2023-11-21T11:16:32;26.00;;;13.57;;
16506;SDS011;8366;51.020;7.642;2023-11-21T11:18:59;26.93;;;13.23;;
16506;SDS011;8366;51.020;7.642;2023-11-21T11:21:27;23.70;;;12.77;;
16506;SDS011;8366;51.020;7.642;2023-11-21T11:24:05;24.37;;;12.97;;
16506;SDS011;8366;51.020;7.642;2023-11-21T11:26:42;23.73;;;11.30;;
16506;SDS011;8366;51.020;7.642;2023-11-21T11:29:14;25.83;;;11.67;;
16506;SDS011;8366;51.020;7.642;2023-11-21T11:31:50;22.00;;;12.03;;
16506;SDS011;8366;51.020;7.642;2023-11-21T11:34:23;24.40;;;12.30;;
16506;SDS011;8366;51.020;7.642;2023-11-21T11:36:58;21.03;;;11.60;;
16506;SDS011;8366;51.020;7.642;2023-11-21T11:39:27;26.00;;;12.23;;
16506;SDS011;8366;51.020;7.642;2023-11-21T11:41:55;24.60;;;11.73;;
16506;SDS011;8366;51.020;7.642;2023-11-21T11:47:20;20.50;;;11.27;;
16506;SDS011;8366;51.020;7.642;2023-11-21T11:49:58;20.90;;;9.73;;
16506;SDS011;8366;51.020;7.642;2023-11-21T11:52:32;19.27;;;9.67;;
16506;SDS011;8366;51.020;7.642;2023-11-21T11:55:02;20.37;;;8.73;;
16506;SDS011;8366;51.020;7.642;2023-11-21T11:57:30;18.90;;;8.63;;
16506;SDS011;8366;51.020;7.642;2023-11-21T12:00:10;18.47;;;8.77;;
16506;SDS011;8366;51.020;7.642;2023-11-21T12:02:47;17.93;;;10.17;;
16506;SDS011;8366;51.020;7.642;2023-11-21T12:05:15;23.33;;;9.80;;
16506;SDS011;8366;51.020;7.642;2023-11-21T12:07:48;16.73;;;8.40;;
16506;SDS011;8366;51.020;7.642;2023-11-21T12:10:18;16.60;;;8.43;;
16506;SDS011;8366;51.020;7.642;2023-11-21T12:12:46;29.47;;;17.77;;
16506;SDS011;8366;51.020;7.642;2023-11-21T12:15:14;41.60;;;28.67;;
16506;SDS011;8366;51.020;7.642;2023-11-21T12:17:41;15.17;;;9.40;;
16506;SDS011;8366;51.020;7.642;2023-11-21T12:20:11;15.67;;;7.80;;
16506;SDS011;8366;51.020;7.642;2023-11-21T12:22:43;14.53;;;7.13;;
16506;SDS011;8366;51.020;7.642;2023-11-21T12:25:12;12.70;;;6.60;;
16506;SDS011;8366;51.020;7.642;2023-11-21T12:27:41;13.57;;;6.33;;
16506;SDS011;8366;51.020;7.642;2023-11-21T12:30:09;12.23;;;6.63;;
16506;SDS011;8366;51.020;7.642;2023-11-21T12:32:38;15.10;;;6.37;;
16506;SDS011;8366;51.020;7.642;2023-11-21T12:35:06;13.70;;;5.87;;
16506;SDS011;8366;51.020;7.642;2023-11-21T12:37:34;11.30;;;6.43;;
16506;SDS011;8366;51.020;7.642;2023-11-21T12:40:00;14.45;;;6.13;;
16506;SDS011;8366;51.020;7.642;2023-11-21T12:42:27;14.93;;;6.23;;
16506;SDS011;8366;51.020;7.642;2023-11-21T12:45:06;17.30;;;7.03;;
16506;SDS011;8366;51.020;7.642;2023-11-21T12:47:34;13.97;;;6.43;;
16506;SDS011;8366;51.020;7.642;2023-11-21T12:50:01;15.03;;;6.20;;
16506;SDS011;8366;51.020;7.642;2023-11-21T12:52:30;14.60;;;5.27;;
16506;SDS011;8366;51.020;7.642;2023-11-21T12:54:58;15.73;;;6.03;;
16506;SDS011;8366;51.020;7.642;2023-11-21T12:57:25;13.47;;;4.73;;
16506;SDS011;8366;51.020;7.642;2023-11-21T12:59:56;15.70;;;5.47;;
16506;SDS011;8366;51.020;7.642;2023-11-21T13:02:25;9.30;;;4.03;;
16506;SDS011;8366;51.020;7.642;2023-11-21T13:04:52;10.90;;;4.83;;
16506;SDS011;8366;51.020;7.642;2023-11-21T13:07:19;11.17;;;5.10;;
16506;SDS011;8366;51.020;7.642;2023-11-21T13:09:46;13.50;;;5.47;;
16506;SDS011;8366;51.020;7.642;2023-11-21T13:12:14;11.90;;;4.90;;
16506;SDS011;8366;51.020;7.642;2023-11-21T13:14:43;13.03;;;4.60;;
16506;SDS011;8366;51.020;7.642;2023-11-21T13:17:12;9.27;;;4.30;;
16506;SDS011;8366;51.020;7.642;2023-11-21T13:19:39;11.13;;;4.00;;
16506;SDS011;8366;51.020;7.642;2023-11-21T13:22:07;9.40;;;3.60;;
16506;SDS011;8366;51.020;7.642;2023-11-21T13:24:36;7.97;;;3.53;;
16506;SDS011;8366;51.020;7.642;2023-11-21T13:27:03;11.87;;;3.97;;
16506;SDS011;8366;51.020;7.642;2023-11-21T13:29:33;14.27;;;4.17;;
16506;SDS011;8366;51.020;7.642;2023-11-21T13:32:00;12.97;;;3.47;;
16506;SDS011;8366;51.020;7.642;2023-11-21T13:34:29;11.40;;;3.70;;
16506;SDS011;8366;51.020;7.642;2023-11-21T13:36:57;8.07;;;3.37;;
16506;SDS011;8366;51.020;7.642;2023-11-21T13:39:25;8.77;;;3.60;;
16506;SDS011;8366;51.020;7.642;2023-11-21T13:41:54;11.20;;;3.43;;
16506;SDS011;8366;51.020;7.642;2023-11-21T13:44:22;11.03;;;3.60;;
16506;SDS011;8366;51.020;7.642;2023-11-21T13:47:00;9.10;;;3.70;;
16506;SDS011;8366;51.020;7.642;2023-11-21T13:49:27;9.50;;;4.10;;
16506;SDS011;8366;51.020;7.642;2023-11-21T13:51:56;9.37;;;3.73;;
16506;SDS011;8366;51.020;7.642;2023-11-21T13:54:24;12.67;;;4.27;;
16506;SDS011;8366;51.020;7.642;2023-11-21T13:56:51;8.23;;;3.60;;
16506;SDS011;8366;51.020;7.642;2023-11-21T13:59:19;10.83;;;5.20;;
16506;SDS011;8366;51.020;7.642;2023-11-21T14:01:48;11.80;;;4.43;;
16506;SDS011;8366;51.020;7.642;2023-11-21T14:04:24;5.37;;;3.40;;
16506;SDS011;8366;51.020;7.642;2023-11-21T14:07:07;6.63;;;3.57;;
16506;SDS011;8366;51.020;7.642;2023-11-21T14:09:47;6.83;;;3.60;;
16506;SDS011;8366;51.020;7.642;2023-11-21T14:12:14;5.93;;;3.73;;
16506;SDS011;8366;51.020;7.642;2023-11-21T14:14:41;8.17;;;3.77;;
16506;SDS011;8366;51.020;7.642;2023-11-21T14:17:09;7.23;;;3.70;;
16506;SDS011;8366;51.020;7.642;2023-11-21T14:19:37;6.67;;;3.40;;
16506;SDS011;8366;51.020;7.642;2023-11-21T14:22:08;5.63;;;3.77;;
16506;SDS011;8366;51.020;7.642;2023-11-21T14:24:34;6.73;;;3.40;;
16506;SDS011;8366;51.020;7.642;2023-11-21T14:27:02;7.13;;;3.97;;
16506;SDS011;8366;51.020;7.642;2023-11-21T14:29:30;8.57;;;4.87;;
16506;SDS011;8366;51.020;7.642;2023-11-21T14:32:02;8.70;;;4.40;;
16506;SDS011;8366;51.020;7.642;2023-11-21T14:34:28;6.10;;;4.00;;
16506;SDS011;8366;51.020;7.642;2023-11-21T14:36:56;8.03;;;5.27;;
16506;SDS011;8366;51.020;7.642;2023-11-21T14:39:23;7.40;;;4.60;;
16506;SDS011;8366;51.020;7.642;2023-11-21T14:41:52;7.77;;;4.07;;
16506;SDS011;8366;51.020;7.642;2023-11-21T14:44:21;5.73;;;3.70;;
16506;SDS011;8366;51.020;7.642;2023-11-21T14:46:51;5.73;;;3.80;;
16506;SDS011;8366;51.020;7.642;2023-11-21T14:49:20;6.03;;;4.00;;
16506;SDS011;8366;51.020;7.642;2023-11-21T14:51:48;5.63;;;3.97;;
16506;SDS011;8366;51.020;7.642;2023-11-21T14:54:27;6.03;;;4.00;;